Time;durP1;ratioP1;P1;durP2;ratioP2;P2;SDS_P1;SDS_P2;PMS_P1;PMS_P2;Temp;Humidity;BMP_temperature;BMP_pressure;BME280_temperature;BME280_humidity;BME280_pressure;Samples;Min_cycle;Max_cycle;Signal;HPM_P1;HPM_P2
2023/07/31 16:31:35;;;;;;;;;1.00;1.00;;;;;23.80;51.46;97847.38;4583688;28;104895;-71
2023/07/31 16:34:17;;;;;;;;;0.00;0.00;;;;;23.72;51.40;97853.59;4971910;28;108296;-71
2023/07/31 16:36:44;;;;;;;;;1.00;1.00;;;;;23.66;52.35;97841.00;4989777;28;102390;-72
2023/07/31 16:39:11;;;;;;;;;1.00;0.00;;;;;23.73;52.55;97852.47;4991971;28;101996;-71
2023/07/31 16:41:38;;;;;;;;;0.00;0.00;;;;;23.71;53.09;97860.25;4971282;28;101993;-72
2023/07/31 16:44:06;;;;;;;;;0.00;0.00;;;;;23.59;52.18;97845.28;4972933;28;104057;-72
2023/07/31 16:46:35;;;;;;;;;0.00;0.00;;;;;23.40;53.11;97831.50;4998198;28;102288;-71
2023/07/31 16:49:05;;;;;;;;;0.67;0.00;;;;;23.45;53.54;97840.56;4974438;28;102522;-72
2023/07/31 16:51:34;;;;;;;;;0.00;0.00;;;;;23.46;54.90;97853.22;4996576;28;102399;-73
2023/07/31 16:54:02;;;;;;;;;0.00;0.00;;;;;23.09;54.87;97781.56;4992890;28;104214;-73
2023/07/31 16:56:30;;;;;;;;;0.00;0.00;;;;;23.62;54.11;97851.03;4992039;28;102177;-73
2023/07/31 16:59:19;;;;;;;;;0.00;0.00;;;;;23.66;52.88;97841.00;4967489;28;103236;-72
2023/07/31 17:01:47;;;;;;;;;1.00;1.00;;;;;23.63;52.48;97830.59;4994124;28;102283;-73
2023/07/31 17:04:15;;;;;;;;;2.00;1.00;;;;;23.66;52.56;97838.25;4994236;28;106066;-73
2023/07/31 17:06:43;;;;;;;;;1.00;1.00;;;;;23.57;52.90;97826.28;4998690;28;102069;-73
2023/07/31 17:09:10;;;;;;;;;0.67;0.67;;;;;23.71;52.85;97846.44;4995142;28;102110;-73
2023/07/31 17:11:38;;;;;;;;;2.67;1.00;;;;;23.70;52.78;97847.56;4988321;28;102146;-73
2023/07/31 17:14:08;;;;;;;;;0.00;0.00;;;;;23.67;53.37;97847.34;4973553;28;103949;-73
2023/07/31 17:16:35;;;;;;;;;0.00;0.00;;;;;23.72;52.58;97850.84;4971134;28;102276;-73
2023/07/31 17:19:03;;;;;;;;;1.00;1.00;;;;;23.52;53.03;97859.47;4988936;28;102176;-72
2023/07/31 17:21:30;;;;;;;;;1.00;0.00;;;;;23.50;52.93;97861.72;4979543;28;102055;-73
2023/07/31 17:23:57;;;;;;;;;1.00;0.00;;;;;23.47;53.56;97845.75;4993868;28;103730;-73
2023/07/31 17:26:34;;;;;;;;;1.00;1.00;;;;;23.48;54.04;97855.69;4995142;28;102288;-73
2023/07/31 17:29:18;;;;;;;;;0.33;0.00;;;;;23.34;53.93;97843.75;4986642;28;102533;-71
2023/07/31 17:32:08;;;;;;;;;0.00;0.00;;;;;23.45;54.10;97856.31;4985538;28;102531;-72
2023/07/31 17:34:56;;;;;;;;;0.67;0.67;;;;;23.37;54.47;97860.50;4981531;28;105381;-72
2023/07/31 17:37:45;;;;;;;;;0.00;0.00;;;;;23.29;56.42;97852.09;4990893;28;102189;-74
2023/07/31 17:40:31;;;;;;;;;1.00;0.00;;;;;23.23;54.62;97858.84;4986525;28;102241;-72
2023/07/31 17:43:15;;;;;;;;;0.00;0.00;;;;;23.16;55.98;97858.41;4992659;28;102631;-72
2023/07/31 17:46:05;;;;;;;;;0.33;0.33;;;;;23.06;57.17;97854.69;4985535;28;103851;-71
2023/07/31 17:48:46;;;;;;;;;0.00;0.00;;;;;22.89;57.36;97842.56;4987333;28;103700;-72
2023/07/31 17:51:40;;;;;;;;;0.00;0.00;;;;;22.77;58.50;97851.28;4996065;28;102379;-72
2023/07/31 17:54:16;;;;;;;;;0.00;0.00;;;;;22.37;58.29;97819.59;4999579;28;102033;-72
2023/07/31 17:56:43;;;;;;;;;0.33;0.33;;;;;22.43;59.04;97848.69;5000499;28;103574;-72
2023/07/31 17:59:10;;;;;;;;;0.00;0.00;;;;;22.32;61.13;97865.66;5002392;28;102195;-72
2023/07/31 18:01:37;;;;;;;;;0.00;0.00;;;;;22.18;60.41;97855.34;4998543;28;102017;-73
2023/07/31 18:04:05;;;;;;;;;0.00;0.00;;;;;21.91;60.39;97826.72;5001542;28;102421;-73
2023/07/31 18:06:34;;;;;;;;;0.00;0.00;;;;;21.89;61.83;97845.47;4994310;28;104197;-72
2023/07/31 18:09:02;;;;;;;;;0.00;0.00;;;;;21.72;63.27;97851.44;4977074;28;102282;-72
2023/07/31 18:11:31;;;;;;;;;0.00;0.00;;;;;21.58;65.00;97861.47;4989042;28;102010;-73
2023/07/31 18:13:59;;;;;;;;;1.00;0.00;;;;;21.44;64.75;97864.06;5002347;28;102075;-72
2023/07/31 18:16:26;;;;;;;;;0.00;0.00;;;;;20.99;64.75;97804.78;4997888;28;104031;-72
2023/07/31 18:18:53;;;;;;;;;0.00;0.00;;;;;21.27;64.57;97869.19;4978309;28;101963;-72
2023/07/31 18:21:20;;;;;;;;;0.00;0.00;;;;;21.17;64.44;97869.25;4998543;28;102135;-72
2023/07/31 18:23:47;;;;;;;;;0.00;0.00;;;;;21.09;65.51;97876.16;4997948;28;102075;-71
2023/07/31 18:26:14;;;;;;;;;0.00;0.00;;;;;20.90;68.19;97856.78;4975639;28;104093;-71
2023/07/31 18:28:41;;;;;;;;;0.00;0.00;;;;;20.74;68.35;97863.50;4998325;28;102259;-72
2023/07/31 18:31:09;;;;;;;;;0.67;0.67;;;;;20.55;69.25;97847.94;4994037;28;102001;-72
2023/07/31 18:33:37;;;;;;;;;3.67;3.67;;;;;20.38;69.32;97849.16;5003309;28;102298;-73
2023/07/31 18:36:05;;;;;;;;;1.00;1.00;;;;;20.39;69.19;97867.28;4998258;28;104015;-73
2023/07/31 18:38:32;;;;;;;;;0.00;0.00;;;;;20.03;73.06;97843.78;4995801;28;102209;-72
2023/07/31 18:40:59;;;;;;;;;0.67;0.67;;;;;19.82;73.19;97847.69;4990706;28;102319;-72
2023/07/31 18:43:26;;;;;;;;;1.00;1.00;;;;;19.70;73.49;97836.19;4996885;28;101950;-72
2023/07/31 18:45:53;;;;;;;;;0.67;0.67;;;;;19.50;74.46;97829.66;4993810;28;103184;-72
2023/07/31 18:48:21;;;;;;;;;1.33;1.33;;;;;19.37;76.73;97865.00;5000923;28;102479;-73
2023/07/31 18:50:50;;;;;;;;;1.67;1.67;;;;;19.16;76.74;97856.81;5001474;28;101848;-73
2023/07/31 18:53:18;;;;;;;;;3.00;2.67;;;;;18.92;78.42;97847.47;4998062;28;102068;-73
2023/07/31 18:55:45;;;;;;;;;3.00;3.00;;;;;18.81;78.09;97851.31;4995421;28;104016;-73
2023/07/31 18:58:12;;;;;;;;;12.67;11.00;;;;;18.82;76.78;97846.66;4997110;28;102098;-73
2023/07/31 19:00:39;;;;;;;;;16.00;15.67;;;;;18.85;77.97;97844.19;4997046;28;102289;-73
2023/07/31 19:03:07;;;;;;;;;15.33;14.67;;;;;19.05;78.40;97881.72;4996892;28;102243;-73
2023/07/31 19:05:34;;;;;;;;;20.67;19.67;;;;;18.94;79.66;97882.81;4994579;28;104021;-73
2023/07/31 19:08:04;;;;;;;;;20.25;19.50;;;;;18.76;80.90;97881.44;4994279;28;102201;-73
2023/07/31 19:10:34;;;;;;;;;22.50;20.75;;;;;18.62;84.05;97880.31;4993230;28;101917;-73
2023/07/31 19:13:01;;;;;;;;;20.50;19.75;;;;;18.52;83.36;97872.84;4994964;28;101985;-72
2023/07/31 19:15:29;;;;;;;;;20.25;18.75;;;;;17.58;83.64;97733.53;4997350;28;104327;-72
2023/07/31 19:17:56;;;;;;;;;19.00;18.00;;;;;18.50;84.07;97875.03;4995450;28;102118;-73
2023/07/31 19:20:23;;;;;;;;;16.25;14.75;;;;;18.50;85.25;97886.00;4994175;28;102273;-73
2023/07/31 19:22:50;;;;;;;;;13.33;13.33;;;;;18.38;83.91;97882.66;4997227;28;103045;-73
2023/07/31 19:25:17;;;;;;;;;14.00;14.00;;;;;18.35;83.47;97888.66;4978492;28;104180;-74
2023/07/31 19:27:44;;;;;;;;;13.00;12.00;;;;;18.45;85.71;97894.19;5002147;28;101973;-73
2023/07/31 19:30:12;;;;;;;;;10.33;10.33;;;;;18.39;85.19;97900.72;4997256;28;102232;-73
2023/07/31 19:32:39;;;;;;;;;10.00;10.00;;;;;18.29;85.62;97887.00;4988036;28;102441;-73
2023/07/31 19:35:07;;;;;;;;;11.00;10.00;;;;;18.22;86.33;97890.00;4971802;28;104113;-73
2023/07/31 19:37:34;;;;;;;;;11.67;10.00;;;;;18.15;85.95;97885.84;4956716;28;101993;-72
2023/07/31 19:40:01;;;;;;;;;9.33;8.33;;;;;17.99;86.89;97870.47;4973070;28;102159;-72
2023/07/31 19:42:28;;;;;;;;;9.67;9.00;;;;;17.97;85.67;97870.72;4979388;28;102250;-72
2023/07/31 19:44:55;;;;;;;;;12.33;11.33;;;;;17.94;86.98;97876.72;4982804;28;103025;-72
2023/07/31 19:47:22;;;;;;;;;11.33;11.00;;;;;17.93;85.83;97866.03;4979639;28;102721;-72
2023/07/31 19:49:49;;;;;;;;;15.00;15.00;;;;;17.82;88.33;97866.00;4975002;28;103600;-72
2023/07/31 19:52:16;;;;;;;;;15.00;14.00;;;;;17.79;88.62;97861.06;4975615;28;102039;-72
2023/07/31 19:54:44;;;;;;;;;17.50;16.50;;;;;17.66;89.12;97861.53;4977430;28;103745;-72
2023/07/31 19:57:11;;;;;;;;;15.75;13.00;;;;;17.50;92.59;97862.50;4973986;28;102207;-72
2023/07/31 19:59:38;;;;;;;;;17.00;13.25;;;;;17.25;95.08;97849.47;4963724;28;102204;-71
2023/07/31 20:02:06;;;;;;;;;17.50;16.00;;;;;17.32;95.05;97861.00;4977268;28;102295;-71
2023/07/31 20:04:33;;;;;;;;;14.75;12.25;;;;;17.29;95.13;97850.59;4977324;28;105406;-72
2023/07/31 20:07:00;;;;;;;;;9.67;9.33;;;;;17.37;92.07;97860.22;4971305;28;102324;-72
2023/07/31 20:09:28;;;;;;;;;9.00;8.67;;;;;17.28;94.13;97859.06;4953992;28;102220;-72
2023/07/31 20:11:55;;;;;;;;;8.00;8.00;;;;;17.25;93.63;97851.38;4955587;28;102181;-74
2023/07/31 20:14:22;;;;;;;;;9.00;7.33;;;;;17.14;92.37;97830.53;4961509;28;103519;-72
2023/07/31 20:16:49;;;;;;;;;6.33;5.00;;;;;17.22;91.93;97838.25;4944350;28;102241;-73
2023/07/31 20:19:17;;;;;;;;;6.67;5.67;;;;;17.30;89.13;97845.94;4967683;28;102813;-73
2023/07/31 20:21:48;;;;;;;;;4.33;4.00;;;;;17.27;91.17;97851.94;4970613;28;102300;-72
2023/07/31 20:24:16;;;;;;;;;8.00;6.67;;;;;17.20;95.09;97845.91;4951661;28;103026;-73
2023/07/31 20:26:43;;;;;;;;;9.00;8.00;;;;;17.18;96.93;97853.50;4961273;28;102422;-73
2023/07/31 20:29:10;;;;;;;;;9.00;8.00;;;;;17.12;97.08;97846.34;4971773;28;103139;-73
2023/07/31 20:31:39;;;;;;;;;7.00;7.00;;;;;17.04;96.91;97825.81;4969121;28;102435;-73
2023/07/31 20:34:07;;;;;;;;;4.00;4.00;;;;;17.23;95.08;97848.91;4992332;28;104152;-73
2023/07/31 20:36:35;;;;;;;;;4.00;4.00;;;;;17.29;94.24;97853.31;4994763;28;102011;-73
2023/07/31 20:39:05;;;;;;;;;3.33;3.33;;;;;17.32;93.67;97844.63;4986881;28;102718;-73
2023/07/31 20:41:33;;;;;;;;;5.00;5.00;;;;;17.32;93.27;97839.16;4967981;28;102436;-73
2023/07/31 20:44:00;;;;;;;;;3.33;2.00;;;;;17.30;93.48;97826.81;4982968;28;104300;-73
2023/07/31 20:46:27;;;;;;;;;3.00;3.00;;;;;17.29;92.81;97838.84;4982562;28;103134;-73
2023/07/31 20:48:54;;;;;;;;;2.67;2.67;;;;;17.22;94.27;97822.69;4964294;28;102002;-73
2023/07/31 20:51:21;;;;;;;;;3.67;2.00;;;;;17.19;92.21;97817.75;4988618;28;103851;-73
2023/07/31 20:53:51;;;;;;;;;2.00;2.00;;;;;17.24;90.87;97825.16;4975671;28;105733;-72
2023/07/31 20:56:19;;;;;;;;;2.00;1.00;;;;;17.28;90.13;97812.63;4977116;28;102681;-72
2023/07/31 20:58:46;;;;;;;;;1.00;1.00;;;;;17.30;90.80;97808.50;4986872;28;102329;-73
2023/07/31 21:01:13;;;;;;;;;2.00;2.00;;;;;17.24;92.69;97803.31;4988181;28;103217;-73
2023/07/31 21:03:40;;;;;;;;;1.00;1.00;;;;;17.24;91.19;97804.13;4991664;28;103300;-73
2023/07/31 21:06:08;;;;;;;;;2.00;2.00;;;;;17.24;90.50;97809.59;4989161;28;102392;-72
2023/07/31 21:08:35;;;;;;;;;1.00;1.00;;;;;17.22;90.59;97791.78;4988392;28;102540;-72
